createdAt,value
2023-05-20T00:00:24.700Z,57.21
2023-05-20T00:02:52.248Z,57.24
2023-05-20T00:05:19.843Z,57.25
2023-05-20T00:07:47.676Z,57.25
2023-05-20T00:10:15.462Z,57.24
2023-05-20T00:12:42.894Z,57.19
2023-05-20T00:15:12.471Z,57.24
2023-05-20T00:17:39.948Z,57.18
2023-05-20T00:20:08.816Z,57.22
2023-05-20T00:22:36.277Z,57.32
2023-05-20T00:25:03.907Z,57.19
2023-05-20T00:27:31.344Z,57.27
2023-05-20T00:29:58.894Z,57.25
2023-05-20T00:32:26.963Z,57.27
2023-05-20T00:34:58.760Z,57.30
2023-05-20T00:37:26.921Z,57.21
2023-05-20T00:39:54.456Z,57.23
2023-05-20T00:42:22.440Z,57.25
2023-05-20T00:44:49.930Z,57.16
2023-05-20T00:47:18.200Z,57.25
2023-05-20T00:49:47.582Z,57.18
2023-05-20T00:52:19.533Z,57.29
2023-05-20T00:54:47.032Z,57.28
2023-05-20T00:57:14.953Z,57.24
2023-05-20T00:59:44.674Z,57.23
2023-05-20T01:02:12.465Z,57.27
2023-05-20T01:04:39.947Z,57.23
2023-05-20T01:07:07.580Z,57.24
2023-05-20T01:09:35.091Z,57.20
2023-05-20T01:12:09.593Z,57.25
2023-05-20T01:14:41.189Z,57.24
2023-05-20T01:17:11.474Z,57.21
2023-05-20T01:19:44.355Z,57.29
2023-05-20T01:22:13.620Z,57.20
2023-05-20T01:24:45.546Z,57.24
2023-05-20T01:27:13.935Z,57.21
2023-05-20T01:29:42.681Z,57.19
2023-05-20T01:32:12.499Z,57.21
2023-05-20T01:34:39.988Z,57.32
2023-05-20T01:37:07.429Z,57.18
2023-05-20T01:39:37.994Z,57.25
2023-05-20T01:42:06.013Z,57.20
2023-05-20T01:44:33.556Z,57.26
2023-05-20T01:47:02.226Z,57.27
2023-05-20T01:49:29.723Z,57.26
2023-05-20T01:51:57.810Z,57.20
2023-05-20T01:54:25.825Z,57.20
2023-05-20T01:56:54.032Z,57.23
2023-05-20T01:59:23.282Z,57.20
2023-05-20T02:01:51.409Z,57.18
2023-05-20T02:04:19.569Z,57.23
2023-05-20T02:06:47.052Z,57.21
2023-05-20T02:09:15.515Z,57.19
2023-05-20T02:11:43.228Z,57.18
2023-05-20T02:14:10.830Z,57.21
2023-05-20T02:16:39.209Z,57.25
2023-05-20T02:19:06.839Z,57.16
2023-05-20T02:21:35.751Z,57.14
2023-05-20T02:24:03.487Z,57.22
2023-05-20T02:26:31.351Z,57.17
2023-05-20T02:28:58.868Z,57.23
2023-05-20T02:31:26.450Z,57.24
2023-05-20T02:33:53.912Z,57.13
2023-05-20T02:36:21.647Z,57.20
2023-05-20T02:38:49.203Z,57.20
2023-05-20T02:41:16.679Z,57.21
2023-05-20T02:43:45.562Z,57.22
2023-05-20T02:46:12.994Z,57.21
2023-05-20T02:48:40.847Z,57.18
2023-05-20T02:51:08.499Z,57.26
2023-05-20T02:53:35.961Z,57.26
2023-05-20T02:56:08.940Z,57.22
2023-05-20T02:58:36.747Z,57.24
2023-05-20T03:01:04.879Z,57.28
2023-05-20T03:03:33.801Z,57.25
2023-05-20T03:06:01.163Z,57.27
2023-05-20T03:08:28.792Z,57.25
2023-05-20T03:10:57.399Z,57.24
2023-05-20T03:13:24.834Z,57.28
2023-05-20T03:15:52.276Z,57.23
2023-05-20T03:18:19.969Z,57.22
2023-05-20T03:20:47.594Z,57.20
2023-05-20T03:23:16.109Z,57.23
2023-05-20T03:25:43.540Z,57.32
2023-05-20T03:28:11.197Z,57.25
2023-05-20T03:30:38.789Z,57.25
2023-05-20T03:33:07.495Z,57.20
2023-05-20T03:35:35.415Z,57.26
2023-05-20T03:38:03.274Z,57.30
2023-05-20T03:40:31.042Z,57.27
2023-05-20T03:42:59.149Z,57.27
2023-05-20T03:45:27.045Z,57.25
2023-05-20T03:48:14.422Z,57.28
2023-05-20T03:50:43.528Z,57.30
2023-05-20T03:53:11.600Z,57.26
2023-05-20T03:55:41.208Z,57.30
2023-05-20T03:58:09.385Z,57.31
2023-05-20T04:00:37.606Z,57.30
2023-05-20T04:03:06.180Z,57.33
2023-05-20T04:05:34.186Z,57.36
2023-05-20T04:08:02.322Z,57.29
2023-05-20T04:10:31.423Z,57.27
2023-05-20T04:12:58.894Z,57.34
2023-05-20T04:15:26.627Z,57.33
2023-05-20T04:17:56.108Z,57.42
2023-05-20T04:20:24.704Z,57.34
2023-05-20T04:22:55.427Z,57.34
2023-05-20T04:25:23.127Z,57.39
2023-05-20T04:27:51.293Z,57.31
2023-05-20T04:30:18.914Z,57.40
2023-05-20T04:32:46.622Z,57.40
2023-05-20T04:35:14.928Z,57.44
2023-05-20T04:37:51.092Z,57.49
2023-05-20T04:40:19.453Z,57.41
2023-05-20T04:42:47.189Z,57.44
2023-05-20T04:45:15.706Z,57.35
2023-05-20T04:47:44.785Z,57.47
2023-05-20T04:50:12.487Z,57.42
2023-05-20T04:52:46.493Z,57.43
2023-05-20T04:55:13.964Z,57.46
2023-05-20T04:57:42.602Z,57.41
2023-05-20T05:00:12.050Z,57.49
2023-05-20T05:02:39.739Z,57.42
2023-05-20T05:05:08.168Z,57.49
2023-05-20T05:07:36.152Z,57.43
2023-05-20T05:10:03.642Z,57.47
2023-05-20T05:12:32.504Z,57.43
2023-05-20T05:15:00.202Z,57.46
2023-05-20T05:17:29.339Z,57.44
2023-05-20T05:19:58.450Z,57.58
2023-05-20T05:22:26.933Z,57.50
2023-05-20T05:24:56.223Z,57.50
2023-05-20T05:27:23.851Z,57.48
2023-05-20T05:29:51.327Z,57.50
2023-05-20T05:32:19.225Z,57.44
2023-05-20T05:34:46.995Z,57.46
2023-05-20T05:37:14.460Z,57.56
2023-05-20T05:39:42.802Z,57.45
2023-05-20T05:42:10.375Z,57.52
2023-05-20T05:44:38.865Z,57.42
2023-05-20T05:47:07.647Z,57.46
2023-05-20T05:49:35.557Z,57.46
2023-05-20T05:52:03.776Z,57.50
2023-05-20T05:54:31.534Z,57.52
2023-05-20T05:56:59.130Z,57.47
2023-05-20T05:59:28.040Z,57.47
2023-05-20T06:01:55.836Z,57.56
2023-05-20T06:04:23.899Z,57.46
2023-05-20T06:06:53.769Z,57.45
2023-05-20T06:09:21.714Z,57.49
2023-05-20T06:11:49.421Z,57.52
2023-05-20T06:14:17.183Z,57.52
2023-05-20T06:16:45.716Z,57.56
2023-05-20T06:19:13.687Z,57.48
2023-05-20T06:21:41.238Z,57.51
2023-05-20T06:24:08.903Z,57.55
2023-05-20T06:26:37.468Z,57.46
2023-05-20T06:29:05.997Z,57.54
2023-05-20T06:31:34.487Z,57.49
2023-05-20T06:34:03.462Z,57.49
2023-05-20T06:36:33.588Z,57.61
2023-05-20T06:39:01.736Z,57.50
2023-05-20T06:41:30.478Z,57.48
2023-05-20T06:43:58.260Z,57.54
2023-05-20T06:46:51.347Z,57.64
2023-05-20T06:49:19.084Z,57.56
2023-05-20T06:51:46.598Z,57.57
2023-05-20T06:54:17.931Z,57.57
2023-05-20T06:56:46.053Z,57.56
2023-05-20T06:59:15.857Z,57.57
2023-05-20T07:01:44.022Z,57.56
2023-05-20T07:04:12.675Z,57.57
2023-05-20T07:06:40.332Z,57.63
2023-05-20T07:09:09.159Z,57.60
2023-05-20T07:11:37.126Z,57.57
2023-05-20T07:14:04.606Z,57.56
2023-05-20T07:16:35.458Z,57.50
2023-05-20T07:19:04.946Z,57.54
2023-05-20T07:21:33.594Z,57.57
2023-05-20T07:24:21.831Z,57.62
2023-05-20T07:26:49.516Z,57.62
2023-05-20T07:29:17.175Z,57.60
2023-05-20T07:31:45.306Z,57.55
2023-05-20T07:34:13.253Z,57.54
2023-05-20T07:36:42.096Z,57.55
2023-05-20T07:39:14.433Z,57.54
2023-05-20T07:41:45.577Z,57.58
2023-05-20T07:44:14.132Z,57.58
2023-05-20T07:46:45.965Z,57.40
2023-05-20T07:49:13.638Z,57.50
2023-05-20T07:51:42.121Z,57.63
2023-05-20T07:54:11.418Z,57.57
2023-05-20T07:56:39.040Z,57.56
2023-05-20T07:59:08.155Z,57.63
2023-05-20T08:01:42.531Z,57.63
2023-05-20T08:04:11.595Z,57.69
2023-05-20T08:06:40.198Z,57.73
2023-05-20T08:09:12.877Z,57.63
2023-05-20T08:11:46.569Z,57.56
2023-05-20T08:14:15.559Z,57.65
2023-05-20T08:16:44.227Z,57.68
2023-05-20T08:19:12.483Z,57.62
2023-05-20T08:21:40.297Z,57.63
2023-05-20T08:24:08.516Z,57.62
2023-05-20T08:26:36.619Z,57.65
2023-05-20T08:29:04.271Z,57.63
2023-05-20T08:31:32.040Z,57.64
2023-05-20T08:34:01.073Z,57.67
2023-05-20T08:36:29.144Z,57.53
2023-05-20T08:38:57.665Z,57.68
2023-05-20T08:41:26.138Z,57.67
2023-05-20T08:43:53.799Z,57.74
2023-05-20T08:46:21.779Z,57.77
2023-05-20T08:48:49.620Z,57.78
2023-05-20T08:51:24.093Z,57.68
2023-05-20T08:53:56.094Z,57.72
2023-05-20T08:56:29.333Z,57.72
2023-05-20T08:58:58.552Z,57.75
2023-05-20T09:01:26.495Z,57.82
2023-05-20T09:03:54.361Z,57.80
2023-05-20T09:06:22.252Z,57.76
2023-05-20T09:08:51.540Z,57.77
2023-05-20T09:11:20.166Z,57.81
2023-05-20T09:13:48.127Z,57.89
2023-05-20T09:16:16.457Z,57.81
2023-05-20T09:18:44.172Z,57.75
2023-05-20T09:21:12.067Z,57.84
2023-05-20T09:23:39.730Z,57.83
2023-05-20T09:26:07.911Z,57.81
2023-05-20T09:28:38.640Z,57.75
2023-05-20T09:31:06.956Z,57.74
2023-05-20T09:33:36.016Z,57.72
2023-05-20T09:36:10.391Z,57.76
2023-05-20T09:38:40.053Z,57.79
2023-05-20T09:41:15.819Z,57.73
2023-05-20T09:43:44.689Z,57.78
2023-05-20T09:46:12.370Z,57.77
2023-05-20T09:48:40.383Z,57.77
2023-05-20T09:51:09.509Z,57.78
2023-05-20T09:53:36.994Z,57.78
2023-05-20T09:56:04.854Z,57.70
2023-05-20T09:58:32.893Z,57.69
2023-05-20T10:01:00.413Z,57.71
2023-05-20T10:03:29.629Z,57.74
2023-05-20T10:06:28.755Z,57.65
2023-05-20T10:09:25.615Z,57.74
2023-05-20T10:12:15.430Z,57.67
2023-05-20T10:14:52.243Z,57.63
2023-05-20T10:18:02.114Z,57.70
2023-05-20T10:20:29.887Z,57.69
2023-05-20T10:22:58.569Z,57.64
2023-05-20T10:25:28.548Z,57.61
2023-05-20T10:28:09.316Z,57.63
2023-05-20T10:30:37.888Z,57.67
2023-05-20T10:33:07.504Z,57.68
2023-05-20T10:35:35.708Z,57.61
2023-05-20T10:38:16.025Z,57.62
2023-05-20T10:40:43.641Z,57.62
2023-05-20T10:43:13.105Z,57.59
2023-05-20T10:45:54.126Z,57.61
2023-05-20T10:48:28.854Z,57.59
2023-05-20T10:51:04.415Z,57.56
2023-05-20T10:53:42.768Z,57.54
2023-05-20T10:56:23.064Z,57.57
2023-05-20T10:58:52.189Z,57.56
2023-05-20T11:01:24.426Z,57.65
2023-05-20T11:03:51.965Z,57.58
2023-05-20T11:06:19.553Z,57.59
2023-05-20T11:08:47.823Z,57.57
2023-05-20T11:11:15.821Z,57.55
2023-05-20T11:13:43.682Z,57.62
2023-05-20T11:16:11.261Z,57.54
2023-05-20T11:18:39.424Z,57.61
2023-05-20T11:21:08.326Z,57.49
2023-05-20T11:23:36.826Z,57.58
2023-05-20T11:26:06.082Z,57.57
2023-05-20T11:28:33.860Z,57.55
2023-05-20T11:31:01.824Z,57.56
2023-05-20T11:33:31.019Z,57.51
2023-05-20T11:35:58.681Z,57.55
2023-05-20T11:38:26.261Z,57.60
2023-05-20T11:40:55.180Z,57.66
2023-05-20T11:43:24.083Z,57.59
2023-05-20T11:45:56.761Z,57.68
2023-05-20T11:48:24.627Z,57.62
2023-05-20T11:50:54.319Z,57.61
2023-05-20T11:53:22.931Z,57.57
2023-05-20T11:55:58.536Z,57.60
2023-05-20T11:58:28.356Z,57.58
2023-05-20T12:01:05.715Z,57.62
2023-05-20T12:03:41.687Z,57.67
2023-05-20T12:06:12.746Z,57.67
2023-05-20T12:08:41.360Z,57.66
2023-05-20T12:11:08.889Z,57.60
2023-05-20T12:13:36.331Z,57.61
2023-05-20T12:16:06.252Z,57.63
2023-05-20T12:18:33.931Z,57.63
2023-05-20T12:21:02.597Z,57.53
2023-05-20T12:23:34.398Z,57.61
2023-05-20T12:26:03.196Z,57.57
2023-05-20T12:28:32.608Z,57.61
2023-05-20T12:31:00.452Z,57.63
2023-05-20T12:33:28.775Z,57.55
2023-05-20T12:35:56.204Z,57.66
2023-05-20T12:38:23.675Z,57.66
2023-05-20T12:40:51.644Z,57.68
2023-05-20T12:43:19.286Z,57.67
2023-05-20T12:45:47.380Z,57.70
2023-05-20T12:48:14.917Z,57.74
2023-05-20T12:50:44.753Z,57.72
2023-05-20T12:53:12.227Z,57.73
2023-05-20T12:55:40.768Z,57.74
2023-05-20T12:58:10.908Z,57.71
2023-05-20T13:00:38.695Z,57.73
2023-05-20T13:03:06.882Z,57.66
2023-05-20T13:05:35.534Z,57.80
2023-05-20T13:08:03.064Z,58.08
2023-05-20T13:10:30.649Z,58.33
2023-05-20T13:12:58.258Z,58.88
2023-05-20T13:15:26.179Z,59.42
2023-05-20T13:17:54.758Z,59.54
2023-05-20T13:20:23.396Z,59.60
2023-05-20T13:22:51.316Z,59.67
2023-05-20T13:25:18.768Z,59.71
2023-05-20T13:27:46.619Z,59.69
2023-05-20T13:30:15.234Z,59.77
2023-05-20T13:32:45.071Z,59.81
2023-05-20T13:35:17.137Z,59.79
2023-05-20T13:37:45.167Z,59.85
2023-05-20T13:40:13.303Z,59.80
2023-05-20T13:42:40.811Z,59.81
2023-05-20T13:45:08.752Z,59.93
2023-05-20T13:47:36.519Z,60.07
2023-05-20T13:50:04.495Z,60.13
2023-05-20T13:52:31.943Z,60.02
2023-05-20T13:54:59.495Z,60.09
2023-05-20T13:57:26.965Z,60.06
2023-05-20T13:59:54.855Z,60.07
2023-05-20T14:02:22.436Z,60.09
2023-05-20T14:04:50.047Z,60.03
2023-05-20T14:07:17.904Z,60.05
2023-05-20T14:09:45.518Z,60.11
2023-05-20T14:12:13.097Z,60.12
2023-05-20T14:14:40.617Z,60.08
2023-05-20T14:17:08.101Z,60.09
2023-05-20T14:19:35.830Z,60.04
2023-05-20T14:22:03.626Z,60.09
2023-05-20T14:24:31.243Z,60.07
2023-05-20T14:26:58.879Z,60.10
2023-05-20T14:29:26.487Z,60.20
2023-05-20T14:31:54.205Z,60.09
2023-05-20T14:34:21.721Z,60.05
2023-05-20T14:36:49.240Z,60.03
2023-05-20T14:39:17.418Z,60.02
2023-05-20T14:41:47.134Z,59.95
2023-05-20T14:44:14.570Z,60.01
2023-05-20T14:46:42.012Z,60.13
2023-05-20T14:49:09.547Z,60.13
2023-05-20T14:51:37.169Z,60.10
2023-05-20T14:54:06.388Z,60.06
2023-05-20T14:56:34.240Z,60.10
2023-05-20T14:59:02.109Z,60.07
2023-05-20T15:01:30.076Z,60.08
2023-05-20T15:03:57.772Z,60.02
2023-05-20T15:06:25.727Z,60.05
2023-05-20T15:08:54.011Z,60.13
2023-05-20T15:11:22.847Z,60.09
2023-05-20T15:13:51.887Z,60.11
2023-05-20T15:16:24.694Z,60.13
2023-05-20T15:18:52.556Z,60.03
2023-05-20T15:21:20.324Z,60.05
2023-05-20T15:23:48.156Z,60.11
2023-05-20T15:26:16.455Z,60.06
2023-05-20T15:28:44.677Z,60.06
2023-05-20T15:31:12.934Z,60.15
2023-05-20T15:33:40.612Z,60.12
2023-05-20T15:36:08.361Z,60.11
2023-05-20T15:38:36.015Z,60.13
2023-05-20T15:41:03.773Z,60.15
2023-05-20T15:43:31.613Z,60.15
2023-05-20T15:45:59.468Z,60.22
2023-05-20T15:48:27.000Z,60.25
2023-05-20T15:50:54.712Z,60.20
2023-05-20T15:53:22.296Z,60.19
2023-05-20T15:55:49.811Z,60.27
2023-05-20T15:58:17.534Z,60.17
2023-05-20T16:00:45.052Z,60.25
2023-05-20T16:03:12.939Z,60.30
2023-05-20T16:05:41.067Z,60.23
2023-05-20T16:08:08.990Z,60.25
2023-05-20T16:10:36.800Z,60.22
2023-05-20T16:13:04.527Z,60.15
2023-05-20T16:15:35.939Z,60.05
2023-05-20T16:18:04.222Z,60.06
2023-05-20T16:20:31.908Z,60.25
2023-05-20T16:22:59.404Z,60.26
2023-05-20T16:25:27.277Z,60.21
2023-05-20T16:27:54.865Z,60.19
2023-05-20T16:30:22.338Z,60.17
2023-05-20T16:32:49.827Z,60.11
2023-05-20T16:35:17.699Z,60.00
2023-05-20T16:37:45.680Z,60.09
2023-05-20T16:40:13.607Z,59.99
2023-05-20T16:42:42.623Z,59.96
2023-05-20T16:45:11.195Z,59.87
2023-05-20T16:47:38.766Z,59.84
2023-05-20T16:50:06.982Z,59.77
2023-05-20T16:52:35.419Z,59.79
2023-05-20T16:55:05.327Z,59.77
2023-05-20T16:57:32.980Z,59.81
2023-05-20T17:00:00.575Z,59.68
2023-05-20T17:02:28.147Z,59.72
2023-05-20T17:04:55.795Z,59.69
2023-05-20T17:07:23.743Z,59.60
2023-05-20T17:09:51.841Z,59.58
2023-05-20T17:12:20.339Z,59.56
2023-05-20T17:14:48.171Z,59.54
2023-05-20T17:17:16.829Z,59.50
2023-05-20T17:19:45.235Z,59.49
2023-05-20T17:22:12.958Z,59.45
2023-05-20T17:24:40.574Z,59.40
2023-05-20T17:27:08.181Z,59.39
2023-05-20T17:29:35.735Z,59.30
2023-05-20T17:32:03.245Z,59.49
2023-05-20T17:34:30.759Z,59.35
2023-05-20T17:36:58.544Z,59.32
2023-05-20T17:39:25.974Z,59.36
2023-05-20T17:41:53.456Z,59.29
2023-05-20T17:44:20.928Z,59.20
2023-05-20T17:46:49.088Z,59.21
2023-05-20T17:49:17.307Z,59.32
2023-05-20T17:51:46.366Z,59.28
2023-05-20T17:54:14.206Z,59.22
2023-05-20T17:56:43.919Z,59.25
2023-05-20T17:59:11.928Z,59.27
2023-05-20T18:01:39.562Z,59.23
2023-05-20T18:04:07.036Z,59.17
2023-05-20T18:06:35.016Z,59.17
2023-05-20T18:09:04.934Z,59.18
2023-05-20T18:11:33.863Z,59.23
2023-05-20T18:14:02.067Z,59.13
2023-05-20T18:16:30.315Z,59.08
2023-05-20T18:18:58.193Z,59.06
2023-05-20T18:21:26.478Z,59.06
2023-05-20T18:23:54.428Z,59.06
2023-05-20T18:26:22.033Z,59.07
2023-05-20T18:28:50.452Z,59.12
2023-05-20T18:31:17.942Z,59.13
2023-05-20T18:33:45.680Z,59.02
2023-05-20T18:36:13.360Z,59.09
2023-05-20T18:38:41.919Z,59.04
2023-05-20T18:41:09.806Z,59.01
2023-05-20T18:43:37.447Z,59.02
2023-05-20T18:46:05.105Z,59.03
2023-05-20T18:48:32.816Z,59.09
2023-05-20T18:51:00.472Z,59.06
2023-05-20T18:53:28.214Z,59.08
2023-05-20T18:55:57.134Z,59.13
2023-05-20T18:58:24.561Z,59.11
2023-05-20T19:00:52.157Z,59.05
2023-05-20T19:03:20.648Z,59.11
2023-05-20T19:05:49.142Z,59.05
2023-05-20T19:08:18.550Z,59.05
2023-05-20T19:10:46.155Z,59.10
2023-05-20T19:13:13.652Z,59.14
2023-05-20T19:15:41.354Z,59.09
2023-05-20T19:18:09.050Z,59.11
2023-05-20T19:20:36.734Z,59.10
2023-05-20T19:23:04.285Z,59.10
2023-05-20T19:25:32.853Z,59.09
2023-05-20T19:28:00.450Z,59.00
2023-05-20T19:30:28.204Z,59.06
2023-05-20T19:32:55.824Z,59.01
2023-05-20T19:35:24.961Z,59.04
2023-05-20T19:37:53.321Z,59.05
2023-05-20T19:40:21.472Z,59.10
2023-05-20T19:42:50.120Z,59.11
2023-05-20T19:45:19.123Z,59.17
2023-05-20T19:47:46.909Z,59.17
2023-05-20T19:50:15.073Z,59.09
2023-05-20T19:52:42.675Z,59.06
2023-05-20T19:55:10.820Z,59.06
2023-05-20T19:57:38.508Z,59.03
2023-05-20T20:00:07.676Z,59.01
2023-05-20T20:02:40.354Z,59.12
2023-05-20T20:05:08.473Z,59.04
2023-05-20T20:07:36.311Z,59.03
2023-05-20T20:10:04.276Z,59.14
2023-05-20T20:12:32.036Z,59.06
2023-05-20T20:14:59.450Z,59.10
2023-05-20T20:17:27.060Z,59.07
2023-05-20T20:19:55.596Z,59.07
2023-05-20T20:22:23.186Z,59.09
2023-05-20T20:24:50.815Z,59.06
2023-05-20T20:27:19.665Z,59.06
2023-05-20T20:29:47.117Z,59.07
2023-05-20T20:32:14.677Z,59.06
2023-05-20T20:34:43.288Z,59.09
2023-05-20T20:37:15.098Z,59.10
2023-05-20T20:39:47.314Z,59.06
2023-05-20T20:42:15.153Z,59.18
2023-05-20T20:44:43.593Z,59.17
2023-05-20T20:47:14.947Z,59.07
2023-05-20T20:49:42.508Z,59.07
2023-05-20T20:52:10.538Z,59.05
2023-05-20T20:54:42.068Z,59.07
2023-05-20T20:57:11.790Z,59.12
2023-05-20T20:59:40.100Z,59.08
2023-05-20T21:02:07.563Z,59.07
2023-05-20T21:04:35.176Z,59.12
2023-05-20T21:07:02.836Z,59.08
2023-05-20T21:09:30.280Z,59.09
2023-05-20T21:11:57.792Z,59.19
2023-05-20T21:14:25.704Z,59.13
2023-05-20T21:16:53.187Z,59.05
2023-05-20T21:19:20.834Z,59.12
2023-05-20T21:21:48.385Z,59.08
2023-05-20T21:24:15.914Z,59.18
2023-05-20T21:26:43.591Z,59.03
2023-05-20T21:29:12.471Z,59.12
2023-05-20T21:31:39.912Z,59.12
2023-05-20T21:34:07.677Z,59.07
2023-05-20T21:36:35.095Z,59.16
2023-05-20T21:39:02.566Z,59.19
2023-05-20T21:41:30.174Z,59.11
2023-05-20T21:43:58.077Z,59.12
2023-05-20T21:46:25.851Z,59.04
2023-05-20T21:48:53.421Z,59.15
2023-05-20T21:51:20.912Z,59.05
2023-05-20T21:53:48.352Z,59.10
2023-05-20T21:56:16.141Z,59.03
2023-05-20T21:58:43.564Z,59.09
2023-05-20T22:01:11.115Z,59.08
2023-05-20T22:03:40.399Z,59.15
2023-05-20T22:06:08.052Z,59.06
2023-05-20T22:08:35.482Z,59.16
2023-05-20T22:11:07.768Z,59.13
2023-05-20T22:13:35.979Z,59.10
2023-05-20T22:16:05.338Z,59.07
2023-05-20T22:18:33.064Z,59.11
2023-05-20T22:21:01.567Z,59.05
2023-05-20T22:23:29.289Z,59.11
2023-05-20T22:25:56.976Z,59.02
2023-05-20T22:28:26.425Z,59.15
2023-05-20T22:30:53.985Z,59.04
2023-05-20T22:33:23.318Z,59.18
2023-05-20T22:35:51.706Z,59.09
2023-05-20T22:38:19.715Z,59.11
2023-05-20T22:40:47.335Z,59.01
2023-05-20T22:43:16.859Z,59.18
2023-05-20T22:45:44.506Z,59.16
2023-05-20T22:48:12.978Z,59.09
2023-05-20T22:50:40.572Z,59.06
2023-05-20T22:53:08.188Z,59.08
2023-05-20T22:55:39.181Z,59.03
2023-05-20T22:58:08.231Z,59.09
2023-05-20T23:00:36.022Z,58.99
2023-05-20T23:03:03.549Z,59.00
2023-05-20T23:05:31.879Z,59.07
2023-05-20T23:07:59.544Z,59.03
2023-05-20T23:10:27.238Z,59.10
2023-05-20T23:12:54.701Z,59.06
2023-05-20T23:15:25.501Z,59.04
2023-05-20T23:17:53.331Z,59.11
2023-05-20T23:20:22.839Z,59.04
2023-05-20T23:22:50.519Z,59.01
2023-05-20T23:25:18.281Z,59.07
2023-05-20T23:27:46.418Z,59.09
2023-05-20T23:30:14.477Z,59.07
2023-05-20T23:32:42.012Z,59.03
2023-05-20T23:35:12.028Z,59.07
2023-05-20T23:37:41.148Z,59.12
2023-05-20T23:40:12.128Z,58.93
2023-05-20T23:42:40.313Z,59.04
2023-05-20T23:45:08.307Z,59.07
2023-05-20T23:47:36.833Z,59.00
2023-05-20T23:50:04.627Z,58.99
2023-05-20T23:52:32.237Z,59.02
2023-05-20T23:55:01.181Z,59.04
2023-05-20T23:57:28.970Z,58.96
2023-05-20T23:59:56.530Z,59.10
